Time;durP1;ratioP1;P1;durP2;ratioP2;P2;SDS_P1;SDS_P2;PMS_P1;PMS_P2;Temp;Humidity;BMP_temperature;BMP_pressure;BME280_temperature;BME280_humidity;BME280_pressure;Samples;Min_cycle;Max_cycle;Signal;HPM_P1;HPM_P2
2022/08/04 00:00:26;;;;;;;5.20;3.28;;;;;;;;;;5064634;28;20533;-92
2022/08/04 00:02:57;;;;;;;5.38;3.38;;;17.00;99.90;;;;;;5038773;28;20706;-92
2022/08/04 00:05:23;;;;;;;7.10;2.78;;;;;;;;;;5039199;28;20221;-92
2022/08/04 00:08:18;;;;;;;4.20;2.78;;;17.20;99.90;;;;;;5058519;28;20310;-93
2022/08/04 00:10:49;;;;;;;6.03;2.85;;;17.10;99.90;;;;;;5044522;28;20611;-93
2022/08/04 00:13:20;;;;;;;11.00;3.25;;;17.10;99.90;;;;;;5063159;28;20159;-93
2022/08/04 00:15:47;;;;;;;6.47;2.67;;;;;;;;;;5069700;28;20160;-93
2022/08/04 00:18:15;;;;;;;5.25;3.13;;;17.00;99.90;;;;;;5060836;28;20207;-93
2022/08/04 00:20:41;;;;;;;3.05;2.25;;;;;;;;;;5054240;28;20179;-94
2022/08/04 00:23:08;;;;;;;4.07;2.30;;;17.00;99.90;;;;;;5036828;28;20641;-93
2022/08/04 00:25:38;;;;;;;6.03;2.83;;;18.60;99.90;;;;;;5054198;28;20187;-93
2022/08/04 00:28:05;;;;;;;3.25;2.63;;;16.50;99.90;;;;;;5054098;28;20167;-93
2022/08/04 00:30:31;;;;;;;4.00;2.35;;;;;;;;;;5036169;28;20171;-94
2022/08/04 00:32:57;;;;;;;3.45;2.38;;;;;;;;;;5053730;28;20183;-94
2022/08/04 00:35:23;;;;;;;3.80;2.83;;;;;;;;;;5035950;28;20172;-91
2022/08/04 00:37:49;;;;;;;5.00;3.08;;;;;;;;;;5054006;28;20259;-93
2022/08/04 00:40:37;;;;;;;8.00;3.53;;;16.50;99.90;;;;;;5034986;28;20337;-93
2022/08/04 00:43:33;;;;;;;4.15;2.58;;;16.70;99.90;;;;;;5035888;28;20242;-93
2022/08/04 00:46:10;;;;;;;6.85;3.30;;;16.80;99.90;;;;;;5035414;28;20192;-94
2022/08/04 00:48:54;;;;;;;3.05;2.63;;;17.10;99.90;;;;;;5054670;28;20152;-93
2022/08/04 00:51:53;;;;;;;4.22;2.53;;;17.10;99.90;;;;;;5054746;28;20172;-93
2022/08/04 00:55:00;;;;;;;4.15;3.20;;;16.40;99.90;;;;;;5053187;28;20621;-93
2022/08/04 00:57:47;;;;;;;5.35;2.80;;;17.10;99.90;;;;;;5035530;28;20250;-93
2022/08/04 01:00:14;;;;;;;4.63;2.42;;;16.60;99.90;;;;;;5034135;28;20177;-94
2022/08/04 01:02:51;;;;;;;4.82;2.85;;;17.00;99.90;;;;;;5042106;28;20212;-92
2022/08/04 01:05:35;;;;;;;5.13;2.97;;;17.00;99.90;;;;;;5053113;28;20199;-93
2022/08/04 01:08:40;;;;;;;3.67;2.58;;;16.10;99.90;;;;;;5045626;28;20168;-91
2022/08/04 01:11:43;;;;;;;3.97;3.00;;;16.40;99.90;;;;;;5077724;28;20159;-92
2022/08/04 01:14:43;;;;;;;3.10;2.47;;;16.90;99.90;;;;;;5057500;28;20183;-93
2022/08/04 01:17:23;;;;;;;3.72;2.60;;;16.50;99.90;;;;;;5053246;28;20233;-93
2022/08/04 01:20:08;;;;;;;5.28;2.80;;;16.50;99.90;;;;;;5058367;28;20168;-93
2022/08/04 01:22:33;;;;;;;7.47;3.05;;;16.80;99.90;;;;;;5038563;28;20213;-93
2022/08/04 01:25:03;;;;;;;4.70;2.58;;;16.10;99.90;;;;;;5036237;28;20584;-94
2022/08/04 01:27:41;;;;;;;3.78;2.83;;;;;;;;;;5056170;28;20180;-92
2022/08/04 01:30:06;;;;;;;2.72;2.10;;;16.10;99.90;;;;;;5039798;28;20188;-93
2022/08/04 01:32:37;;;;;;;6.10;3.28;;;16.30;99.90;;;;;;5056381;28;20725;-93
2022/08/04 01:35:26;;;;;;;4.40;3.13;;;16.30;99.90;;;;;;5044092;28;20232;-94
2022/08/04 01:38:06;;;;;;;5.43;2.80;;;16.30;99.90;;;;;;5060736;28;20259;-92
2022/08/04 01:40:34;;;;;;;5.15;2.90;;;16.10;99.90;;;;;;5038679;28;20175;-93
2022/08/04 01:43:02;;;;;;;4.35;2.58;;;16.00;99.90;;;;;;5039453;28;20279;-93
2022/08/04 01:45:29;;;;;;;4.47;2.72;;;16.20;99.90;;;;;;5058468;28;20621;-93
2022/08/04 01:47:56;;;;;;;4.22;3.25;;;16.00;99.90;;;;;;5038955;28;20183;-93
2022/08/04 01:50:23;;;;;;;3.28;2.92;;;16.10;99.90;;;;;;5038521;28;20184;-90
2022/08/04 01:52:52;;;;;;;3.97;3.10;;;16.10;99.90;;;;;;5038612;28;20179;-92
2022/08/04 01:55:18;;;;;;;3.92;2.60;;;16.10;99.90;;;;;;5037940;28;20215;-92
2022/08/04 01:57:47;;;;;;;3.38;2.78;;;16.00;99.90;;;;;;5021661;28;20204;-92
2022/08/04 02:00:19;;;;;;;5.55;2.63;;;16.40;99.90;;;;;;5056371;28;20179;-94
2022/08/04 02:02:45;;;;;;;6.57;2.97;;;16.00;99.90;;;;;;5055950;28;20317;-93
2022/08/04 02:05:14;;;;;;;4.13;2.70;;;15.70;99.90;;;;;;5038163;28;20188;-93
2022/08/04 02:07:40;;;;;;;5.07;2.60;;;;;;;;;;5056306;28;20271;-93
2022/08/04 02:10:20;;;;;;;6.07;3.42;;;15.90;99.90;;;;;;5056042;28;20184;-93
2022/08/04 02:12:58;;;;;;;7.35;2.92;;;15.90;99.90;;;;;;5055641;28;20164;-93
2022/08/04 02:15:41;;;;;;;5.05;3.08;;;15.90;99.90;;;;;;5056409;28;20156;-93
2022/08/04 02:18:31;;;;;;;5.10;3.25;;;15.90;99.90;;;;;;5038432;28;20164;-93
2022/08/04 02:21:00;;;;;;;5.00;2.90;;;15.90;99.90;;;;;;5031821;28;20208;-92
2022/08/04 02:23:39;;;;;;;6.50;3.53;;;15.70;99.90;;;;;;5039368;28;20202;-90
2022/08/04 02:26:12;;;;;;;3.72;2.72;;;15.80;99.90;;;;;;5049208;28;20172;-92
2022/08/04 02:28:51;;;;;;;4.43;2.75;;;15.60;99.90;;;;;;5048252;28;20203;-93
2022/08/04 02:31:20;;;;;;;4.28;2.63;;;15.60;99.90;;;;;;5050226;28;20274;-93
2022/08/04 02:33:53;;;;;;;5.65;3.10;;;15.70;99.90;;;;;;5031229;28;20200;-92
2022/08/04 02:36:26;;;;;;;5.05;2.35;;;15.30;99.90;;;;;;5046574;28;20223;-94
2022/08/04 02:38:57;;;;;;;6.22;2.58;;;16.10;99.90;;;;;;5051179;28;20182;-93
2022/08/04 02:41:25;;;;;;;4.43;2.45;;;15.70;99.90;;;;;;5052888;28;20676;-94
2022/08/04 02:43:54;;;;;;;5.43;3.08;;;15.60;99.90;;;;;;5031902;28;20226;-94
2022/08/04 02:46:20;;;;;;;6.63;3.38;;;16.10;99.90;;;;;;5046621;28;20222;-93
2022/08/04 02:48:47;;;;;;;4.13;3.03;;;15.30;99.90;;;;;;5046111;28;20182;-92
2022/08/04 02:51:15;;;;;;;6.00;2.92;;;15.60;99.90;;;;;;5051943;28;20649;-93
2022/08/04 02:53:42;;;;;;;4.90;3.13;;;16.00;99.90;;;;;;5037883;28;20179;-94
2022/08/04 02:56:10;;;;;;;5.80;3.20;;;15.60;99.90;;;;;;5054957;28;20180;-93
2022/08/04 02:58:37;;;;;;;3.35;2.50;;;15.30;99.90;;;;;;5054562;28;20168;-92
2022/08/04 03:01:03;;;;;;;5.85;2.85;;;15.90;99.90;;;;;;5037261;28;20565;-92
2022/08/04 03:03:32;;;;;;;5.03;3.00;;;;;;;;;;5037318;28;20199;-93
2022/08/04 03:06:16;;;;;;;5.65;2.78;;;15.00;99.90;;;;;;5037406;28;20191;-92
2022/08/04 03:08:54;;;;;;;4.80;3.17;;;15.30;99.90;;;;;;5067397;28;20194;-93
2022/08/04 03:11:37;;;;;;;4.10;2.42;;;15.30;99.90;;;;;;5069841;28;20175;-93
2022/08/04 03:14:15;;;;;;;2.63;2.40;;;15.80;99.90;;;;;;5078533;28;20156;-91
2022/08/04 03:17:02;;;;;;;4.05;2.92;;;15.90;99.90;;;;;;5077484;28;20188;-93
2022/08/04 03:20:18;;;;;;;4.20;2.78;;;15.20;99.90;;;;;;5054858;28;20274;-93
2022/08/04 03:23:04;;;;;;;4.60;3.15;;;15.80;99.90;;;;;;5037165;28;20693;-94
2022/08/04 03:26:18;;;;;;;5.68;2.70;;;15.50;99.90;;;;;;5037067;28;20203;-94
2022/08/04 03:29:01;;;;;;;8.15;2.80;;;16.00;99.90;;;;;;5053557;28;20178;-92
2022/08/04 03:31:47;;;;;;;4.53;3.08;;;15.40;99.90;;;;;;5052530;28;20736;-93
2022/08/04 03:34:39;;;;;;;4.53;2.63;;;15.60;99.90;;;;;;5033171;28;20202;-92
2022/08/04 03:37:24;;;;;;;5.20;3.35;;;15.60;99.90;;;;;;5033904;28;20235;-91
2022/08/04 03:40:16;;;;;;;4.72;2.60;;;16.00;99.90;;;;;;5051967;28;20164;-89
2022/08/04 03:42:47;;;;;;;5.85;2.95;;;15.80;99.90;;;;;;5048313;28;20180;-91
2022/08/04 03:45:44;;;;;;;3.97;2.97;;;15.50;99.90;;;;;;5032568;28;20633;-90
2022/08/04 03:48:31;;;;;;;4.32;2.67;;;16.20;99.90;;;;;;5034917;28;20259;-91
2022/08/04 03:54:19;;;;;;;6.15;4.10;;;15.50;99.90;;;;;;5052184;28;20279;-91
2022/08/04 03:57:18;;;;;;;7.32;3.40;;;16.00;99.90;;;;;;5055359;28;20174;-91
2022/08/04 04:00:01;;;;;;;3.97;2.88;;;16.00;99.90;;;;;;5060618;28;20236;-90
2022/08/04 04:02:48;;;;;;;3.67;2.42;;;16.20;99.90;;;;;;5043745;28;20171;-91
2022/08/04 04:05:45;;;;;;;4.40;2.92;;;16.20;99.90;;;;;;5048115;28;20165;-91
2022/08/04 04:08:43;;;;;;;6.03;3.15;;;16.70;99.90;;;;;;5034236;28;20181;-91
2022/08/04 04:11:42;;;;;;;3.15;2.50;;;16.40;99.90;;;;;;5033983;28;20231;-91
2022/08/04 04:14:20;;;;;;;2.92;2.42;;;16.80;99.90;;;;;;5030031;28;20168;-91
2022/08/04 04:16:57;;;;;;;3.88;2.70;;;17.10;99.90;;;;;;5046327;28;20177;-91
2022/08/04 04:19:50;;;;;;;6.55;2.63;;;16.50;99.90;;;;;;5028663;28;20249;-92
2022/08/04 04:22:40;;;;;;;3.70;2.88;;;16.70;99.90;;;;;;5016266;28;20207;-91
2022/08/04 04:25:31;;;;;;;2.60;2.40;;;17.30;99.90;;;;;;5016214;28;20185;-91
2022/08/04 04:28:06;;;;;;;3.67;2.65;;;17.40;99.90;;;;;;5015730;28;20230;-91
2022/08/04 04:31:00;;;;;;;3.85;2.50;;;16.90;99.90;;;;;;5033774;28;20165;-91
2022/08/04 04:33:46;;;;;;;3.13;2.38;;;17.20;99.90;;;;;;5016002;28;20196;-91
2022/08/04 04:36:24;;;;;;;3.22;2.55;;;17.40;99.90;;;;;;5033536;28;20689;-91
2022/08/04 04:39:00;;;;;;;4.47;2.45;;;17.40;99.90;;;;;;5015265;28;20223;-91
2022/08/04 04:42:04;;;;;;;3.42;2.30;;;17.90;99.90;;;;;;5033778;28;20161;-91
2022/08/04 04:44:57;;;;;;;2.85;1.90;;;17.60;99.90;;;;;;5033537;28;20168;-92
2022/08/04 04:47:23;;;;;;;2.15;1.88;;;;;;;;;;5015675;28;20180;-92
2022/08/04 04:49:58;;;;;;;2.47;2.08;;;17.60;99.90;;;;;;5033371;28;20196;-92
2022/08/04 04:52:36;;;;;;;3.05;2.08;;;18.40;99.90;;;;;;5034626;28;20203;-91
2022/08/04 04:55:02;;;;;;;4.38;2.13;;;;;;;;;;5033272;28;20167;-91
2022/08/04 04:57:34;;;;;;;3.33;2.28;;;18.00;99.90;;;;;;5033359;28;20168;-91
2022/08/04 05:00:02;;;;;;;4.20;2.40;;;18.10;99.90;;;;;;5034079;28;20632;-92
2022/08/04 05:03:08;;;;;;;2.25;2.00;;;17.90;99.90;;;;;;5036848;28;20255;-92
2022/08/04 05:06:04;;;;;;;3.70;2.67;;;17.90;99.90;;;;;;5037350;28;20168;-92
2022/08/04 05:08:47;;;;;;;2.47;1.88;;;18.20;99.90;;;;;;5036886;28;20251;-92
2022/08/04 05:11:13;;;;;;;1.98;1.77;;;;;;;;;;5037463;28;20204;-92
2022/08/04 05:13:39;;;;;;;2.83;1.80;;;;;;;;;;5019535;28;20558;-92
2022/08/04 05:16:33;;;;;;;2.53;1.98;;;19.20;99.90;;;;;;5019196;28;20180;-93
2022/08/04 05:19:26;;;;;;;3.25;2.28;;;19.10;99.90;;;;;;5028086;28;20204;-91
2022/08/04 05:21:56;;;;;;;2.38;1.98;;;19.20;99.90;;;;;;5037348;28;20172;-91
2022/08/04 05:24:24;;;;;;;2.17;1.85;;;19.30;99.90;;;;;;5019455;28;20176;-92
2022/08/04 05:26:54;;;;;;;1.80;1.70;;;19.50;99.90;;;;;;5036742;28;20172;-91
2022/08/04 05:29:36;;;;;;;3.05;1.88;;;19.50;99.90;;;;;;5036966;28;20156;-93
2022/08/04 05:32:06;;;;;;;2.75;1.77;;;19.20;99.90;;;;;;5037161;28;20779;-94
2022/08/04 05:34:41;;;;;;;1.60;1.50;;;19.90;99.90;;;;;;5042226;28;20177;-94
2022/08/04 05:37:17;;;;;;;3.08;2.30;;;19.60;99.90;;;;;;5042776;28;20676;-95
2022/08/04 05:39:59;;;;;;;3.38;1.92;;;20.10;99.90;;;;;;5040746;28;20180;-95
2022/08/04 05:42:26;;;;;;;1.75;1.38;;;20.20;99.90;;;;;;5030890;28;20235;-91
2022/08/04 05:44:52;;;;;;;5.03;2.47;;;;;;;;;;5060405;28;20196;-93
2022/08/04 05:47:20;;;;;;;3.53;1.60;;;;;;;;;;5060009;28;20161;-92
2022/08/04 05:49:46;;;;;;;2.35;1.63;;;;;;;;;;5060112;28;20176;-92
2022/08/04 05:52:13;;;;;;;2.42;1.63;;;20.70;99.90;;;;;;5044606;28;20236;-94
2022/08/04 05:54:41;;;;;;;1.85;1.63;;;20.70;99.90;;;;;;5037126;28;20234;-93
2022/08/04 05:57:08;;;;;;;2.95;1.98;;;20.80;99.90;;;;;;5002523;28;20262;-93
2022/08/04 05:59:36;;;;;;;3.58;1.83;;;20.90;99.90;;;;;;5002727;28;20657;-93
2022/08/04 06:02:03;;;;;;;1.70;1.58;;;21.00;99.90;;;;;;5021060;28;20184;-93
2022/08/04 06:04:50;;;;;;;1.58;1.48;;;21.10;99.90;;;;;;5033571;28;20184;-96
2022/08/04 06:07:16;;;;;;;2.90;1.90;;;21.20;99.90;;;;;;5036192;28;20180;-95
2022/08/04 06:09:41;;;;;;;2.20;1.33;;;21.30;99.90;;;;;;5053707;28;20186;-93
2022/08/04 06:12:13;;;;;;;1.58;1.40;;;21.50;99.90;;;;;;5049165;28;20750;-95
2022/08/04 06:14:42;;;;;;;2.15;1.95;;;21.50;99.90;;;;;;5036627;28;20294;-95
2022/08/04 06:17:12;;;;;;;2.17;1.90;;;21.50;99.90;;;;;;5048475;28;20529;-96
2022/08/04 06:19:40;;;;;;;3.10;1.90;;;21.60;99.90;;;;;;5053199;28;20603;-95
2022/08/04 06:22:08;;;;;;;2.25;2.03;;;21.70;99.90;;;;;;5049805;28;20189;-95
2022/08/04 06:24:36;;;;;;;1.65;1.50;;;21.90;99.90;;;;;;5033218;28;20535;-93
2022/08/04 06:27:03;;;;;;;1.92;1.60;;;21.90;99.90;;;;;;5044171;28;20249;-91
2022/08/04 06:29:40;;;;;;;1.95;1.83;;;22.10;99.90;;;;;;5042930;28;20186;-95
2022/08/04 06:35:00;;;;;;;1.95;1.60;;;22.20;99.90;;;;;;5032041;28;20203;-92
2022/08/04 06:37:27;;;;;;;1.92;1.60;;;22.30;99.90;;;;;;5048524;28;20314;-92
2022/08/04 06:39:53;;;;;;;1.70;1.23;;;22.40;99.90;;;;;;5034143;28;20596;-94
2022/08/04 06:42:24;;;;;;;3.10;1.80;;;22.70;99.90;;;;;;5048553;28;20192;-91
2022/08/04 06:44:55;;;;;;;2.13;1.50;;;22.90;99.90;;;;;;5048712;28;20541;-93
2022/08/04 06:47:22;;;;;;;2.45;1.65;;;22.90;99.90;;;;;;5021840;28;20663;-94
2022/08/04 06:49:50;;;;;;;1.08;1.00;;;23.00;99.90;;;;;;5030167;28;20227;-93
2022/08/04 06:52:18;;;;;;;4.03;1.63;;;23.20;99.90;;;;;;5055823;28;20204;-94
2022/08/04 06:54:48;;;;;;;1.20;1.00;;;23.20;99.90;;;;;;5036952;28;20176;-93
2022/08/04 06:57:16;;;;;;;1.33;1.23;;;23.30;99.90;;;;;;5045816;28;20601;-93
2022/08/04 06:59:44;;;;;;;2.22;1.23;;;23.40;99.90;;;;;;5046097;28;20571;-93
2022/08/04 07:02:15;;;;;;;1.85;1.48;;;23.40;99.90;;;;;;5034544;28;20192;-95
2022/08/04 07:04:45;;;;;;;1.10;1.00;;;23.50;99.90;;;;;;5033200;28;20282;-90
2022/08/04 07:07:12;;;;;;;2.00;1.48;;;23.70;99.90;;;;;;5017064;28;20668;-92
2022/08/04 07:09:38;;;;;;;1.10;0.95;;;23.80;99.90;;;;;;5054115;28;20240;-91
2022/08/04 07:12:06;;;;;;;1.17;0.90;;;23.70;99.90;;;;;;5032344;28;20203;-90
2022/08/04 07:14:35;;;;;;;1.98;1.10;;;23.90;99.90;;;;;;5040622;28;20657;-93
2022/08/04 07:17:03;;;;;;;1.30;1.15;;;24.00;99.90;;;;;;5051126;28;20188;-90
2022/08/04 07:19:34;;;;;;;0.98;0.90;;;24.10;99.90;;;;;;5058123;28;20202;-90
2022/08/04 07:22:00;;;;;;;1.10;1.00;;;;;;;;;;5036992;28;20279;-91
2022/08/04 07:24:34;;;;;;;1.13;0.90;;;24.20;99.90;;;;;;5052999;28;20243;-93
2022/08/04 07:27:00;;;;;;;1.30;0.80;;;24.30;99.90;;;;;;5036536;28;20187;-91
2022/08/04 07:29:26;;;;;;;2.25;1.77;;;23.90;99.90;;;;;;5024331;28;20639;-93
2022/08/04 07:31:53;;;;;;;1.08;1.00;;;24.40;99.90;;;;;;5026745;28;20274;-89
2022/08/04 07:34:20;;;;;;;1.13;0.95;;;;;;;;;;5007119;28;20200;-89
2022/08/04 07:36:46;;;;;;;1.10;0.98;;;;;;;;;;5020192;28;20245;-89
2022/08/04 07:39:12;;;;;;;2.33;1.55;;;24.60;99.90;;;;;;5030722;28;20198;-88
2022/08/04 07:41:38;;;;;;;1.30;1.20;;;;;;;;;;5032707;28;20194;-89
2022/08/04 07:44:05;;;;;;;1.10;1.00;;;;;;;;;;5020002;28;20200;-87
2022/08/04 07:46:31;;;;;;;1.15;1.05;;;;;;;;;;5050230;28;20192;-89
2022/08/04 07:48:58;;;;;;;1.80;1.20;;;;;;;;;;5023747;28;20207;-90
2022/08/04 07:51:24;;;;;;;1.17;0.93;;;;;;;;;;5042573;28;20200;-89
2022/08/04 07:53:50;;;;;;;1.95;1.08;;;;;;;;;;5029442;28;20192;-90
2022/08/04 07:56:16;;;;;;;2.88;2.08;;;;;;;;;;5003457;28;20196;-89
2022/08/04 07:58:42;;;;;;;1.73;1.13;;;;;;;;;;5031777;28;20290;-90
2022/08/04 08:01:09;;;;;;;1.60;1.20;;;24.70;96.80;;;;;;5039932;28;20700;-89
2022/08/04 08:03:39;;;;;;;1.67;1.00;;;24.80;98.80;;;;;;5034062;28;20183;-89
2022/08/04 08:06:05;;;;;;;1.27;1.17;;;;;;;;;;5032425;28;20583;-90
2022/08/04 08:08:31;;;;;;;0.77;0.77;;;;;;;;;;5030645;28;20191;-91
2022/08/04 08:10:58;;;;;;;2.83;0.90;;;;;;;;;;5029169;28;20294;-90
2022/08/04 08:13:24;;;;;;;1.05;0.90;;;;;;;;;;5009904;28;20196;-90
2022/08/04 08:15:52;;;;;;;0.82;0.82;;;24.90;96.50;;;;;;5017235;28;20226;-91
2022/08/04 08:18:18;;;;;;;1.23;0.85;;;;;;;;;;5010199;28;20184;-93
2022/08/04 08:20:45;;;;;;;0.90;0.70;;;;;;;;;;5029480;28;20198;-90
2022/08/04 08:23:11;;;;;;;0.60;0.60;;;;;;;;;;5029122;28;20684;-91
2022/08/04 08:25:37;;;;;;;1.33;1.23;;;;;;;;;;5026213;28;20188;-92
2022/08/04 08:28:04;;;;;;;1.20;1.00;;;;;;;;;;5033571;28;20345;-92
2022/08/04 08:30:33;;;;;;;1.45;1.00;;;;;;;;;;5029877;28;20188;-91
2022/08/04 08:33:05;;;;;;;2.10;0.95;;;;;;;;;;5023209;28;20208;-91
2022/08/04 08:35:33;;;;;;;2.25;1.77;;;;;;;;;;5040272;28;20191;-91
2022/08/04 08:38:02;;;;;;;1.20;1.10;;;;;;;;;;5055030;28;20190;-93
2022/08/04 08:40:39;;;;;;;1.20;1.10;;;25.70;97.90;;;;;;5031968;28;20210;-90
2022/08/04 08:43:26;;;;;;;1.90;0.90;;;25.50;98.10;;;;;;5049260;28;20168;-95
2022/08/04 08:46:15;;;;;;;2.63;1.38;;;25.70;98.50;;;;;;5032830;28;20191;-93
2022/08/04 08:49:29;;;;;;;1.65;1.08;;;25.70;98.40;;;;;;5037170;28;20181;-94
2022/08/04 08:52:16;;;;;;;2.00;1.42;;;25.00;99.90;;;;;;5012716;28;20219;-95
2022/08/04 08:55:18;;;;;;;1.40;1.10;;;25.10;99.90;;;;;;5036500;28;20188;-93
2022/08/04 08:58:08;;;;;;;1.65;1.30;;;25.40;99.90;;;;;;5037770;28;20198;-91
2022/08/04 09:00:48;;;;;;;1.08;0.98;;;25.80;98.70;;;;;;5037298;28;20273;-93
2022/08/04 09:03:35;;;;;;;1.55;1.10;;;25.80;98.80;;;;;;5057344;28;20195;-91
2022/08/04 09:06:19;;;;;;;1.20;1.10;;;25.80;99.30;;;;;;5051589;28;20697;-92
2022/08/04 09:08:45;;;;;;;0.75;0.75;;;;;;;;;;5029106;28;20267;-91
2022/08/04 09:11:18;;;;;;;3.25;1.63;;;25.50;99.90;;;;;;5054582;28;20684;-91
2022/08/04 09:13:51;;;;;;;1.30;1.20;;;25.90;98.60;;;;;;5054858;28;20192;-92
2022/08/04 09:16:28;;;;;;;1.13;0.88;;;26.60;99.90;;;;;;5034264;28;20275;-90
2022/08/04 09:19:02;;;;;;;3.83;1.70;;;26.10;98.40;;;;;;5033342;28;20194;-92
2022/08/04 09:21:46;;;;;;;1.42;1.20;;;26.00;99.90;;;;;;5037995;28;20198;-95
2022/08/04 09:24:21;;;;;;;1.67;1.02;;;26.10;98.60;;;;;;5029725;28;20179;-94
2022/08/04 09:26:56;;;;;;;1.55;1.00;;;;;;;;;;5025769;28;20191;-95
2022/08/04 09:29:22;;;;;;;1.42;1.00;;;;;;;;;;5040260;28;20184;-89
2022/08/04 09:31:56;;;;;;;3.65;1.23;;;;;;;;;;5020707;28;20203;-92
2022/08/04 09:34:34;;;;;;;1.48;1.30;;;;;;;;;;5031599;28;20184;-96
2022/08/04 09:40:06;;;;;;;5.68;2.42;;;;;;;;;;5006987;28;20189;-95
2022/08/04 09:43:16;;;;;;;1.10;0.95;;;27.00;96.10;;;;;;5028455;28;20223;-96
2022/08/04 09:45:57;;;;;;;2.97;1.20;;;27.10;96.10;;;;;;5023374;28;20181;-94
2022/08/04 09:48:47;;;;;;;1.00;0.90;;;27.30;93.80;;;;;;5025444;28;20185;-96
2022/08/04 09:51:39;;;;;;;0.82;0.82;;;;;;;;;;5017341;28;20209;-96
2022/08/04 09:54:11;;;;;;;1.08;0.98;;;;;;;;;;5035455;28;20267;-95
2022/08/04 09:56:56;;;;;;;1.38;0.70;;;;;;;;;;5028314;28;20189;-96
2022/08/04 09:59:35;;;;;;;0.90;0.90;;;;;;;;;;5033331;28;20246;-93
2022/08/04 10:02:06;;;;;;;0.90;0.90;;;;;;;;;;5022651;28;20185;-92
2022/08/04 10:04:35;;;;;;;1.88;1.00;;;27.60;94.00;;;;;;5028230;28;20185;-92
2022/08/04 10:07:04;;;;;;;5.55;0.95;;;;;;;;;;5030468;28;20192;-95
2022/08/04 10:09:37;;;;;;;1.17;1.08;;;;;;;;;;5030774;28;20188;-91
2022/08/04 10:12:22;;;;;;;1.42;1.08;;;27.70;92.00;;;;;;5028027;28;20235;-92
2022/08/04 10:14:48;;;;;;;1.25;1.15;;;;;;;;;;5034487;28;20194;-91
2022/08/04 10:17:22;;;;;;;1.10;1.00;;;27.80;91.00;;;;;;5037586;28;20209;-92
2022/08/04 10:20:02;;;;;;;1.20;0.93;;;27.90;91.10;;;;;;5027799;28;20267;-92
2022/08/04 10:22:33;;;;;;;1.20;1.10;;;;;;;;;;5023466;28;20181;-93
2022/08/04 10:25:08;;;;;;;1.65;1.50;;;;;;;;;;5028083;28;20202;-90
2022/08/04 10:27:34;;;;;;;9.00;1.20;;;;;;;;;;5033936;28;20210;-93
2022/08/04 10:30:13;;;;;;;1.50;1.25;;;28.20;89.80;;;;;;5032928;28;20230;-89
2022/08/04 10:32:45;;;;;;;1.08;0.98;;;;;;;;;;5032498;28;20200;-90
2022/08/04 10:35:14;;;;;;;1.13;1.00;;;28.30;88.60;;;;;;5022532;28;20219;-91
2022/08/04 10:38:12;;;;;;;1.40;1.30;;;28.40;90.10;;;;;;5029902;28;20548;-90
2022/08/04 10:41:02;;;;;;;0.77;0.77;;;28.00;99.90;;;;;;5034123;28;20187;-90
2022/08/04 10:44:05;;;;;;;0.70;0.70;;;28.50;85.70;;;;;;5040223;28;20183;-90
2022/08/04 10:46:36;;;;;;;2.08;1.10;;;28.80;86.90;;;;;;5050352;28;20186;-88
2022/08/04 10:49:07;;;;;;;1.15;0.90;;;28.90;80.90;;;;;;5043019;28;20176;-91
2022/08/04 10:51:57;;;;;;;1.60;1.10;;;28.40;85.20;;;;;;5018383;28;20211;-90
2022/08/04 10:54:30;;;;;;;1.30;1.17;;;;;;;;;;5019133;28;20196;-92
2022/08/04 10:57:05;;;;;;;2.45;1.20;;;28.00;87.00;;;;;;5024090;28;20187;-94
2022/08/04 10:59:45;;;;;;;1.40;1.30;;;27.50;99.80;;;;;;5032319;28;20598;-89
2022/08/04 11:02:21;;;;;;;2.08;1.45;;;27.90;88.20;;;;;;5038957;28;20199;-90
2022/08/04 11:04:56;;;;;;;1.73;1.60;;;28.00;90.10;;;;;;5033518;28;20188;-89
2022/08/04 11:07:23;;;;;;;1.00;0.90;;;28.20;88.50;;;;;;5032928;28;20187;-88
2022/08/04 11:09:49;;;;;;;1.23;0.73;;;;;;;;;;5033374;28;20258;-90
2022/08/04 11:12:23;;;;;;;0.90;0.80;;;28.70;87.80;;;;;;5015814;28;20212;-90
2022/08/04 11:15:03;;;;;;;0.95;0.85;;;28.30;99.60;;;;;;5031989;28;20199;-90
2022/08/04 11:17:39;;;;;;;1.98;0.90;;;29.10;86.20;;;;;;5031927;28;20645;-87
2022/08/04 11:20:21;;;;;;;1.40;1.25;;;28.50;98.10;;;;;;5034065;28;20207;-90
2022/08/04 11:22:51;;;;;;;1.38;1.27;;;28.90;83.00;;;;;;5022357;28;20185;-88
2022/08/04 11:25:24;;;;;;;2.53;1.35;;;29.00;82.60;;;;;;5033960;28;20230;-90
2022/08/04 11:27:50;;;;;;;3.22;1.00;;;;;;;;;;5033475;28;20382;-90
2022/08/04 11:30:17;;;;;;;1.10;1.00;;;28.90;83.60;;;;;;5033689;28;20180;-87
2022/08/04 11:32:51;;;;;;;0.90;0.90;;;28.90;84.50;;;;;;5032684;28;20212;-90
2022/08/04 11:35:58;;;;;;;1.27;1.00;;;29.20;84.60;;;;;;5030323;28;20641;-90
2022/08/04 11:38:37;;;;;;;2.80;2.03;;;29.50;96.60;;;;;;5039141;28;20245;-91
2022/08/04 11:41:14;;;;;;;3.33;1.00;;;29.00;82.00;;;;;;5034075;28;20179;-91
2022/08/04 11:43:57;;;;;;;1.23;1.13;;;29.10;82.70;;;;;;5051884;28;20183;-91
2022/08/04 11:46:38;;;;;;;1.30;1.00;;;29.30;83.60;;;;;;5036099;28;20183;-90
2022/08/04 11:49:32;;;;;;;1.85;1.63;;;29.50;81.80;;;;;;5054347;28;20184;-91
2022/08/04 11:52:02;;;;;;;1.20;1.00;;;29.40;80.40;;;;;;5049864;28;20187;-92
2022/08/04 11:54:48;;;;;;;1.25;1.15;;;29.40;77.90;;;;;;5056179;28;20180;-92
2022/08/04 11:57:14;;;;;;;1.30;1.20;;;;;;;;;;5038426;28;20198;-93
2022/08/04 11:59:47;;;;;;;1.35;1.25;;;;;;;;;;5031988;28;20200;-92
2022/08/04 12:02:19;;;;;;;1.63;1.05;;;;;;;;;;5057689;28;20349;-93
2022/08/04 12:04:49;;;;;;;1.20;1.00;;;;;;;;;;5040437;28;20193;-93
2022/08/04 12:07:30;;;;;;;1.15;1.05;;;29.10;80.30;;;;;;5046868;28;20188;-89
2022/08/04 12:10:05;;;;;;;1.02;0.90;;;29.10;78.60;;;;;;5046181;28;20184;-93
2022/08/04 12:12:52;;;;;;;;;;;;;;;;;;;;;
2022/08/04 12:15:37;;;;;;;1.10;1.00;;;29.10;78.60;;;;;;5059675;28;20195;-91
2022/08/04 12:18:26;;;;;;;1.10;0.80;;;;;;;;;;5050451;28;20539;-93
2022/08/04 12:21:06;;;;;;;1.48;1.35;;;29.10;79.10;;;;;;5051941;28;20188;-94
2022/08/04 12:23:41;;;;;;;2.20;1.35;;;29.20;80.00;;;;;;5051687;28;20179;-93
2022/08/04 12:26:36;;;;;;;1.60;1.20;;;29.30;78.10;;;;;;5026628;28;20237;-92
2022/08/04 12:29:03;;;;;;;1.20;1.10;;;29.10;79.70;;;;;;5057308;28;20223;-92
2022/08/04 12:31:46;;;;;;;4.80;1.30;;;29.00;78.70;;;;;;5056469;28;20180;-91
2022/08/04 12:34:12;;;;;;;1.13;1.02;;;;;;;;;;5054306;28;20629;-93
2022/08/04 12:36:54;;;;;;;1.77;1.20;;;;;;;;;;5043854;28;20230;-91
2022/08/04 12:39:25;;;;;;;0.88;0.85;;;29.30;81.00;;;;;;5064165;28;20193;-94
2022/08/04 12:41:54;;;;;;;1.08;1.02;;;;;;;;;;5050250;28;20294;-94
2022/08/04 12:44:53;;;;;;;;;;;;;;;;;;;;;
2022/08/04 12:47:23;;;;;;;1.17;1.08;;;;;;;;;;5066453;28;20199;-94
2022/08/04 12:49:50;;;;;;;1.13;1.02;;;29.40;77.40;;;;;;5044610;28;20180;-95
2022/08/04 12:52:19;;;;;;;3.67;2.65;;;29.50;78.40;;;;;;5035184;28;20188;-91
2022/08/04 12:54:53;;;;;;;3.42;1.92;;;29.50;78.80;;;;;;5059372;28;20188;-93
2022/08/04 12:57:22;;;;;;;1.25;1.15;;;29.50;76.60;;;;;;5063264;28;20172;-94
2022/08/04 12:59:50;;;;;;;2.70;2.33;;;;;;;;;;5073752;28;20184;-92
2022/08/04 13:02:28;;;;;;;1.13;1.02;;;29.70;78.00;;;;;;5055675;28;20204;-94
2022/08/04 13:04:58;;;;;;;1.75;1.50;;;29.80;77.60;;;;;;5051085;28;20198;-93
2022/08/04 13:07:26;;;;;;;1.33;1.20;;;29.80;78.50;;;;;;5060918;28;20187;-92
2022/08/04 13:09:52;;;;;;;1.30;1.20;;;;;;;;;;5048633;28;20171;-90
2022/08/04 13:12:25;;;;;;;1.00;0.90;;;29.80;76.40;;;;;;5039607;28;20211;-93
2022/08/04 13:14:59;;;;;;;1.17;1.08;;;29.80;76.30;;;;;;5052349;28;20180;-90
2022/08/04 13:17:25;;;;;;;1.50;1.33;;;;;;;;;;5053089;28;20234;-89
2022/08/04 13:19:53;;;;;;;1.60;1.27;;;;;;;;;;5028505;28;20694;-90
2022/08/04 13:22:27;;;;;;;2.40;1.05;;;29.70;77.10;;;;;;5053787;28;20234;-90
2022/08/04 13:24:56;;;;;;;0.90;0.90;;;29.80;76.30;;;;;;5054121;28;20220;-89
2022/08/04 13:27:23;;;;;;;1.80;1.50;;;29.80;76.90;;;;;;5043631;28;20676;-90
2022/08/04 13:29:54;;;;;;;0.80;0.80;;;29.90;76.40;;;;;;5043027;28;20192;-91
2022/08/04 13:32:22;;;;;;;1.20;1.10;;;29.80;73.30;;;;;;5052965;28;20415;-89
2022/08/04 13:34:50;;;;;;;1.23;1.13;;;29.60;73.90;;;;;;5020791;28;20191;-90
2022/08/04 13:37:19;;;;;;;1.10;1.10;;;29.50;77.60;;;;;;5040837;28;20220;-90
2022/08/04 13:39:48;;;;;;;1.25;1.15;;;29.60;76.00;;;;;;5058563;28;20253;-91
2022/08/04 13:42:14;;;;;;;3.13;2.03;;;;;;;;;;5054739;28;20200;-88
2022/08/04 13:44:45;;;;;;;4.07;2.63;;;29.60;75.10;;;;;;5036349;28;20195;-91
2022/08/04 13:47:17;;;;;;;2.78;2.00;;;29.80;76.60;;;;;;5052504;28;20187;-89
2022/08/04 13:50:26;;;;;;;1.92;1.52;;;29.70;75.60;;;;;;5025977;28;20176;-89
2022/08/04 13:52:54;;;;;;;1.30;1.20;;;29.50;76.90;;;;;;5025739;28;20188;-88
2022/08/04 13:55:34;;;;;;;1.33;1.20;;;29.20;76.30;;;;;;5037174;28;20180;-89
2022/08/04 13:58:22;;;;;;;2.20;1.92;;;28.70;94.50;;;;;;5037446;28;20183;-89
2022/08/04 14:00:48;;;;;;;5.18;2.30;;;;;;;;;;5055672;28;20215;-92
2022/08/04 14:03:33;;;;;;;1.27;1.17;;;29.00;77.30;;;;;;5053277;28;20214;-91
2022/08/04 14:06:19;;;;;;;1.50;1.35;;;28.50;93.40;;;;;;5060672;28;20191;-88
2022/08/04 14:08:45;;;;;;;1.10;0.93;;;;;;;;;;5052897;28;20191;-87